Sensei Solo Sailor — FIIG — position and weather

sailwx.info

Track history (hours):
 
Tides and Currents Weather Stations Pressure Air Temp Water Temp Dewpoint Dewpoint Depression Visibility Wind Speed Wind Dir Waves Ship Positions

Sensei Solo Sailor

Last reported at 2018-Jun-19 06:07 UTC. Time now 2018-Jun-20 09:35 UTC.
Position N 48°23' W 004°29'.

Length 12 m.

Type: Sailing vessel. MMSI: 228038800.

Date/timePositionNaut miles runAvg speedWind from/ knotsBaromVisibWave heightAir tempDewpointWater temp
2018-Jun-19 06:07N 48°23' W 004°29'0 0.0
2018-Jun-19 05:58N 48°23' W 004°29'2 4.7
2018-Jun-19 05:30N 48°21' W 004°32'4 6.9
2018-Jun-19 05:00N 48°20' W 004°37'3 5.9
2018-Jun-19 04:31N 48°19' W 004°41'3 5.2
2018-Jun-19 04:00N 48°19' W 004°45'2 3.9
2018-Jun-19 03:31N 48°20' W 004°47'2 3.8
2018-Jun-19 03:00N 48°21' W 004°49'3 4.5
2018-Jun-19 02:23N 48°24' W 004°49'3 6.9
2018-Jun-19 02:01N 48°27' W 004°50'3 6.5
2018-Jun-19 01:31N 48°30' W 004°51'3 6.1
2018-Jun-19 01:01N 48°33' W 004°51'4 7.4
2018-Jun-19 00:31N 48°36' W 004°50'4 8.0
2018-Jun-19 00:00N 48°40' W 004°49'66 4.4
2018-Jun-18 08:54N 49°18' W 003°26'36 4.7
2018-Jun-18 01:13N 49°36' W 002°38'3 7.9
2018-Jun-18 00:52N 49°34' W 002°35'3 7.8
2018-Jun-18 00:28N 49°33' W 002°30'6 6.2
2018-Jun-17 23:34N 49°38' W 002°25'2 6.2
2018-Jun-17 23:10N 49°40' W 002°24'2 5.2
2018-Jun-17 22:49N 49°42' W 002°22'2 4.2
2018-Jun-17 22:25N 49°43' W 002°22'2 5.5
2018-Jun-17 21:59N 49°46' W 002°22'2 1.6
2018-Jun-17 20:28N 49°47' W 002°19'3 6.6
2018-Jun-17 20:01N 49°46' W 002°14'7 4.8
2018-Jun-17 18:39N 49°46' W 002°04'4 9.8
2018-Jun-17 18:16N 49°46' W 001°59'311.3
2018-Jun-17 18:01N 49°46' W 001°54'4211.0
2018-Jun-17 14:12N 49°36' W 000°51'2 8.7
2018-Jun-17 14:00N 49°35' W 000°48'4 8.3
2018-Jun-17 13:29N 49°33' W 000°43'4 7.9
2018-Jun-17 13:00N 49°31' W 000°38'4 6.9
2018-Jun-17 12:30N 49°30' W 000°33'3 5.8
2018-Jun-17 11:59N 49°28' W 000°30'3 5.6
2018-Jun-17 11:30N 49°26' W 000°27'3 6.3
2018-Jun-17 10:59N 49°23' W 000°24'4 7.1
2018-Jun-17 10:29N 49°21' W 000°20'4 7.7
2018-Jun-17 10:00N 49°19' W 000°15'2 3.2
2018-Jun-17 09:29N 49°17' W 000°15'0 0.9
2018-Jun-17 09:00N 49°17' W 000°15'0 0.3
2018-Jun-17 08:28N 49°17' W 000°15'2 4.1
2018-Jun-17 08:00N 49°15' W 000°16'2 3.8
2018-Jun-17 07:29N 49°13' W 000°18'3 0.2
2018-Jun-16 17:56N 49°11' W 000°20'  
Track history (hours):
 
Tides and Currents Weather Stations Pressure Air Temp Water Temp Dewpoint Dewpoint Depression Visibility Wind Speed Wind Dir Waves Ship Positions

Sensei Solo Sailor

Last reported at 2018-Jun-19 06:07 UTC. Time now 2018-Jun-20 09:35 UTC.
Position N 48°23' W 004°29'.

Length 12 m.

Type: Sailing vessel. MMSI: 228038800.

Date/timePositionNaut miles runAvg speedWind from/ knotsBaromVisibWave heightAir tempDewpointWater temp
2018-Jun-19 06:07N 48°23' W 004°29'0 0.0
2018-Jun-19 05:58N 48°23' W 004°29'2 4.7
2018-Jun-19 05:30N 48°21' W 004°32'4 6.9
2018-Jun-19 05:00N 48°20' W 004°37'3 5.9
2018-Jun-19 04:31N 48°19' W 004°41'3 5.2
2018-Jun-19 04:00N 48°19' W 004°45'2 3.9
2018-Jun-19 03:31N 48°20' W 004°47'2 3.8
2018-Jun-19 03:00N 48°21' W 004°49'3 4.5
2018-Jun-19 02:23N 48°24' W 004°49'3 6.9
2018-Jun-19 02:01N 48°27' W 004°50'3 6.5
2018-Jun-19 01:31N 48°30' W 004°51'3 6.1
2018-Jun-19 01:01N 48°33' W 004°51'4 7.4
2018-Jun-19 00:31N 48°36' W 004°50'4 8.0
2018-Jun-19 00:00N 48°40' W 004°49'66 4.4
2018-Jun-18 08:54N 49°18' W 003°26'36 4.7
2018-Jun-18 01:13N 49°36' W 002°38'3 7.9
2018-Jun-18 00:52N 49°34' W 002°35'3 7.8
2018-Jun-18 00:28N 49°33' W 002°30'6 6.2
2018-Jun-17 23:34N 49°38' W 002°25'2 6.2
2018-Jun-17 23:10N 49°40' W 002°24'2 5.2
2018-Jun-17 22:49N 49°42' W 002°22'2 4.2
2018-Jun-17 22:25N 49°43' W 002°22'2 5.5
2018-Jun-17 21:59N 49°46' W 002°22'2 1.6
2018-Jun-17 20:28N 49°47' W 002°19'3 6.6
2018-Jun-17 20:01N 49°46' W 002°14'7 4.8
2018-Jun-17 18:39N 49°46' W 002°04'4 9.8
2018-Jun-17 18:16N 49°46' W 001°59'311.3
2018-Jun-17 18:01N 49°46' W 001°54'4211.0
2018-Jun-17 14:12N 49°36' W 000°51'2 8.7
2018-Jun-17 14:00N 49°35' W 000°48'4 8.3
2018-Jun-17 13:29N 49°33' W 000°43'4 7.9
2018-Jun-17 13:00N 49°31' W 000°38'4 6.9
2018-Jun-17 12:30N 49°30' W 000°33'3 5.8
2018-Jun-17 11:59N 49°28' W 000°30'3 5.6
2018-Jun-17 11:30N 49°26' W 000°27'3 6.3
2018-Jun-17 10:59N 49°23' W 000°24'4 7.1
2018-Jun-17 10:29N 49°21' W 000°20'4 7.7
2018-Jun-17 10:00N 49°19' W 000°15'2 3.2
2018-Jun-17 09:29N 49°17' W 000°15'0 0.9
2018-Jun-17 09:00N 49°17' W 000°15'0 0.3
2018-Jun-17 08:28N 49°17' W 000°15'2 4.1
2018-Jun-17 08:00N 49°15' W 000°16'2 3.8
2018-Jun-17 07:29N 49°13' W 000°18'3 0.2
2018-Jun-16 17:56N 49°11' W 000°20'  

Dump ship's entire track history